Auburn, WV (26325)

7:06 PM EDT on June 03, 2015 (GMT -0400)
Quirky Towers, Vadis | | Change Station
CLOSE
Current Station
Personal Weather Station
Location: Alum Bridge, WV
Elevation: 837 ft
Nearby Weather Stations

Elev 837 ft 39.04 °N, 80.71 °W | Updated 54 seconds ago

Overcast
Overcast
79.5 °F
Feels Like 82 °F
N
1.6
Wind Variable Wind from SE
Gusts 1.6 mph

Today
High -- | Low -- °F
--% Chance of Precip.
Yesterday
High -- | Low -- °F
Precip. -- in
5:58 AM 8:44 PM
Full, 98% visible
Pressure 30.06 in
Visibility 10.0 miles
Clouds Scattered Clouds 3000 ft
Overcast 6000 ft
Heat Index 82 °F
Dew Point 67 °F
Humidity 66%
Rainfall 0.00 in
Snow Depth Not available.
UV 0 out of 12
Pollen 3.00 out of 12
Air Quality Not available.
Flu Activity Sporadic
METAR KW22 032255Z AUTO 11006KT 10SM SCT030 OVC060 21/15 A3006 RMK AO2

More Conditions Fewer Conditions

Pressure 30.06 in
Visibility 10.0 miles
Clouds Scattered Clouds 3000 ft
Overcast 6000 ft
Heat Index 82 °F
Dew Point 67 °F
Humidity 66%
Rainfall 0.00 in
Snow Depth Not available.
UV 0 out of 12
Pollen 3.00 out of 12
Air Quality Not available.
Flu Activity Sporadic
METAR KW22 032255Z AUTO 11006KT 10SM SCT030 OVC060 21/15 A3006 RMK AO2

More Conditions Fewer Conditions

10-Day Weather Forecast

×

Almanac

Astronomy

Jun. 03, 2015 Rise Set
Actual Time
Civil Twilight
Nautical Twilight
Astronomical Twilight
Moon
Length of Visible Light
Length of Day
Tomorrow will be .
, % of the Moon is Illuminated

Today's Extremes

State Highs State Lows

Community

WunderPhotos

Upload Photos

1,826,297 photos uploaded!

WunderBlogs® & News

Nearby

Air Quality

  Air Quality AQ Index Pollutant
Not available.

Snow Depth

Station Depth Elevation

Earthquake Activity

City Distance Mag. Time & Date
Minimum magnitude displayed is 2.5.

Coastal Water Temperatures

Place Temperature

Stations

Nearby Weather Stations

Station Location Temp. Windchill Dew Point Humidity Wind Precip. Elev Updated Type